sensor_id;sensor_type;location;lat;lon;timestamp;P1;durP1;ratioP1;P2;durP2;ratioP2
18592;SDS011;9426;54.118;17.948;2023-02-28T00:04:29;43.83;;;16.87;;
18592;SDS011;9426;54.118;17.948;2023-02-28T00:09:54;33.17;;;14.13;;
18592;SDS011;9426;54.118;17.948;2023-02-28T00:15:18;34.60;;;14.73;;
18592;SDS011;9426;54.118;17.948;2023-02-28T00:20:46;33.13;;;13.73;;
18592;SDS011;9426;54.118;17.948;2023-02-28T00:26:11;34.60;;;14.77;;
18592;SDS011;9426;54.118;17.948;2023-02-28T00:31:38;43.73;;;16.00;;
18592;SDS011;9426;54.118;17.948;2023-02-28T00:37:06;41.93;;;15.77;;
18592;SDS011;9426;54.118;17.948;2023-02-28T00:42:33;39.27;;;15.00;;
18592;SDS011;9426;54.118;17.948;2023-02-28T00:47:58;40.47;;;14.87;;
18592;SDS011;9426;54.118;17.948;2023-02-28T00:53:24;44.27;;;16.50;;
18592;SDS011;9426;54.118;17.948;2023-02-28T00:58:51;39.63;;;15.13;;
18592;SDS011;9426;54.118;17.948;2023-02-28T01:04:16;34.13;;;14.70;;
18592;SDS011;9426;54.118;17.948;2023-02-28T01:09:43;39.13;;;15.07;;
18592;SDS011;9426;54.118;17.948;2023-02-28T01:15:09;41.20;;;16.03;;
18592;SDS011;9426;54.118;17.948;2023-02-28T01:20:36;49.20;;;18.37;;
18592;SDS011;9426;54.118;17.948;2023-02-28T01:26:06;46.97;;;19.03;;
18592;SDS011;9426;54.118;17.948;2023-02-28T01:31:33;49.73;;;18.23;;
18592;SDS011;9426;54.118;17.948;2023-02-28T01:36:57;44.40;;;17.97;;
18592;SDS011;9426;54.118;17.948;2023-02-28T01:42:24;54.70;;;20.70;;
18592;SDS011;9426;54.118;17.948;2023-02-28T01:47:51;47.90;;;18.33;;
18592;SDS011;9426;54.118;17.948;2023-02-28T01:53:28;52.87;;;20.67;;
18592;SDS011;9426;54.118;17.948;2023-02-28T01:58:57;60.90;;;22.57;;
18592;SDS011;9426;54.118;17.948;2023-02-28T02:04:23;49.83;;;19.80;;
18592;SDS011;9426;54.118;17.948;2023-02-28T02:09:56;52.93;;;21.43;;
18592;SDS011;9426;54.118;17.948;2023-02-28T02:15:26;47.23;;;19.47;;
18592;SDS011;9426;54.118;17.948;2023-02-28T02:26:55;38.73;;;16.20;;
18592;SDS011;9426;54.118;17.948;2023-02-28T02:32:58;38.33;;;15.57;;
18592;SDS011;9426;54.118;17.948;2023-02-28T02:38:37;42.83;;;16.17;;
18592;SDS011;9426;54.118;17.948;2023-02-28T02:44:11;37.03;;;14.80;;
18592;SDS011;9426;54.118;17.948;2023-02-28T02:49:45;32.47;;;14.07;;
18592;SDS011;9426;54.118;17.948;2023-02-28T02:55:14;38.47;;;12.80;;
18592;SDS011;9426;54.118;17.948;2023-02-28T03:00:42;29.50;;;12.57;;
18592;SDS011;9426;54.118;17.948;2023-02-28T03:06:12;24.47;;;10.37;;
18592;SDS011;9426;54.118;17.948;2023-02-28T03:11:41;24.20;;;10.23;;
18592;SDS011;9426;54.118;17.948;2023-02-28T03:17:14;29.37;;;11.30;;
18592;SDS011;9426;54.118;17.948;2023-02-28T03:22:51;27.77;;;10.83;;
18592;SDS011;9426;54.118;17.948;2023-02-28T03:28:25;29.30;;;11.00;;
18592;SDS011;9426;54.118;17.948;2023-02-28T03:33:55;27.80;;;9.40;;
18592;SDS011;9426;54.118;17.948;2023-02-28T03:39:27;25.00;;;11.00;;
18592;SDS011;9426;54.118;17.948;2023-02-28T03:44:59;43.80;;;18.37;;
18592;SDS011;9426;54.118;17.948;2023-02-28T03:50:30;42.53;;;17.00;;
18592;SDS011;9426;54.118;17.948;2023-02-28T03:56:00;44.93;;;18.27;;
18592;SDS011;9426;54.118;17.948;2023-02-28T04:01:31;35.83;;;13.33;;
18592;SDS011;9426;54.118;17.948;2023-02-28T04:07:03;33.97;;;13.30;;
18592;SDS011;9426;54.118;17.948;2023-02-28T04:12:29;27.30;;;11.77;;
18592;SDS011;9426;54.118;17.948;2023-02-28T04:17:54;43.97;;;15.83;;
18592;SDS011;9426;54.118;17.948;2023-02-28T04:23:18;30.87;;;12.37;;
18592;SDS011;9426;54.118;17.948;2023-02-28T04:28:43;24.47;;;9.10;;
18592;SDS011;9426;54.118;17.948;2023-02-28T04:34:08;23.47;;;9.57;;
18592;SDS011;9426;54.118;17.948;2023-02-28T04:39:35;24.43;;;10.27;;
18592;SDS011;9426;54.118;17.948;2023-02-28T04:45:00;25.63;;;10.67;;
18592;SDS011;9426;54.118;17.948;2023-02-28T04:50:26;21.47;;;10.03;;
18592;SDS011;9426;54.118;17.948;2023-02-28T04:55:52;24.17;;;9.30;;
18592;SDS011;9426;54.118;17.948;2023-02-28T05:01:18;24.40;;;9.90;;
18592;SDS011;9426;54.118;17.948;2023-02-28T05:06:46;18.17;;;8.10;;
18592;SDS011;9426;54.118;17.948;2023-02-28T05:12:12;26.57;;;10.37;;
18592;SDS011;9426;54.118;17.948;2023-02-28T05:17:37;14.80;;;6.80;;
18592;SDS011;9426;54.118;17.948;2023-02-28T05:23:03;18.50;;;7.10;;
18592;SDS011;9426;54.118;17.948;2023-02-28T05:28:28;19.83;;;8.13;;
18592;SDS011;9426;54.118;17.948;2023-02-28T05:33:53;18.13;;;8.00;;
18592;SDS011;9426;54.118;17.948;2023-02-28T05:39:20;18.27;;;7.63;;
18592;SDS011;9426;54.118;17.948;2023-02-28T05:44:46;30.30;;;11.77;;
18592;SDS011;9426;54.118;17.948;2023-02-28T05:50:12;36.97;;;14.20;;
18592;SDS011;9426;54.118;17.948;2023-02-28T05:55:38;34.63;;;11.30;;
18592;SDS011;9426;54.118;17.948;2023-02-28T06:01:19;27.50;;;11.93;;
18592;SDS011;9426;54.118;17.948;2023-02-28T06:06:46;35.30;;;12.53;;
18592;SDS011;9426;54.118;17.948;2023-02-28T06:12:14;22.20;;;10.03;;
18592;SDS011;9426;54.118;17.948;2023-02-28T06:17:43;21.37;;;8.87;;
18592;SDS011;9426;54.118;17.948;2023-02-28T06:23:09;15.00;;;6.30;;
18592;SDS011;9426;54.118;17.948;2023-02-28T06:28:38;29.27;;;8.80;;
18592;SDS011;9426;54.118;17.948;2023-02-28T06:34:02;14.43;;;5.73;;
18592;SDS011;9426;54.118;17.948;2023-02-28T06:39:26;14.43;;;5.80;;
18592;SDS011;9426;54.118;17.948;2023-02-28T06:44:52;12.97;;;5.53;;
18592;SDS011;9426;54.118;17.948;2023-02-28T06:50:16;16.73;;;5.50;;
18592;SDS011;9426;54.118;17.948;2023-02-28T06:55:42;18.73;;;6.20;;
18592;SDS011;9426;54.118;17.948;2023-02-28T07:01:07;14.53;;;6.27;;
18592;SDS011;9426;54.118;17.948;2023-02-28T07:06:32;19.37;;;6.53;;
18592;SDS011;9426;54.118;17.948;2023-02-28T07:11:56;15.83;;;5.70;;
18592;SDS011;9426;54.118;17.948;2023-02-28T07:17:23;17.47;;;7.17;;
18592;SDS011;9426;54.118;17.948;2023-02-28T07:22:47;16.13;;;7.43;;
18592;SDS011;9426;54.118;17.948;2023-02-28T07:28:16;24.13;;;8.57;;
18592;SDS011;9426;54.118;17.948;2023-02-28T07:33:41;26.80;;;9.00;;
18592;SDS011;9426;54.118;17.948;2023-02-28T07:39:06;26.90;;;9.87;;
18592;SDS011;9426;54.118;17.948;2023-02-28T07:44:30;28.40;;;9.23;;
18592;SDS011;9426;54.118;17.948;2023-02-28T07:49:56;25.23;;;7.97;;
18592;SDS011;9426;54.118;17.948;2023-02-28T07:55:20;33.23;;;9.23;;
18592;SDS011;9426;54.118;17.948;2023-02-28T08:00:43;24.83;;;8.90;;
18592;SDS011;9426;54.118;17.948;2023-02-28T08:06:14;27.60;;;9.00;;
18592;SDS011;9426;54.118;17.948;2023-02-28T08:11:40;24.47;;;9.73;;
18592;SDS011;9426;54.118;17.948;2023-02-28T08:17:04;21.40;;;8.83;;
18592;SDS011;9426;54.118;17.948;2023-02-28T08:22:30;20.67;;;8.97;;
18592;SDS011;9426;54.118;17.948;2023-02-28T08:27:53;20.23;;;8.03;;
18592;SDS011;9426;54.118;17.948;2023-02-28T08:33:17;21.93;;;8.47;;
18592;SDS011;9426;54.118;17.948;2023-02-28T08:38:42;23.03;;;7.47;;
18592;SDS011;9426;54.118;17.948;2023-02-28T08:44:07;18.57;;;7.27;;
18592;SDS011;9426;54.118;17.948;2023-02-28T08:49:31;18.20;;;6.47;;
18592;SDS011;9426;54.118;17.948;2023-02-28T08:54:56;16.47;;;6.10;;
18592;SDS011;9426;54.118;17.948;2023-02-28T09:00:20;13.33;;;5.17;;
18592;SDS011;9426;54.118;17.948;2023-02-28T09:05:51;8.30;;;3.70;;
18592;SDS011;9426;54.118;17.948;2023-02-28T09:11:18;10.40;;;3.80;;
18592;SDS011;9426;54.118;17.948;2023-02-28T09:16:42;11.90;;;3.30;;
18592;SDS011;9426;54.118;17.948;2023-02-28T09:22:05;15.77;;;4.53;;
18592;SDS011;9426;54.118;17.948;2023-02-28T09:27:30;6.67;;;2.73;;
18592;SDS011;9426;54.118;17.948;2023-02-28T09:32:54;6.87;;;2.20;;
18592;SDS011;9426;54.118;17.948;2023-02-28T09:38:18;8.43;;;2.93;;
18592;SDS011;9426;54.118;17.948;2023-02-28T09:43:45;6.47;;;2.30;;
18592;SDS011;9426;54.118;17.948;2023-02-28T09:49:11;9.07;;;2.33;;
18592;SDS011;9426;54.118;17.948;2023-02-28T09:54:37;6.07;;;2.10;;
18592;SDS011;9426;54.118;17.948;2023-02-28T10:00:05;7.57;;;2.80;;
18592;SDS011;9426;54.118;17.948;2023-02-28T10:05:41;5.93;;;2.00;;
18592;SDS011;9426;54.118;17.948;2023-02-28T10:11:12;3.80;;;2.10;;
18592;SDS011;9426;54.118;17.948;2023-02-28T10:16:40;6.50;;;2.60;;
18592;SDS011;9426;54.118;17.948;2023-02-28T10:22:10;4.90;;;2.23;;
18592;SDS011;9426;54.118;17.948;2023-02-28T10:27:36;5.23;;;2.17;;
18592;SDS011;9426;54.118;17.948;2023-02-28T10:33:02;7.93;;;3.10;;
18592;SDS011;9426;54.118;17.948;2023-02-28T10:38:26;5.97;;;3.10;;
18592;SDS011;9426;54.118;17.948;2023-02-28T10:43:52;9.30;;;3.50;;
18592;SDS011;9426;54.118;17.948;2023-02-28T10:49:20;7.83;;;3.00;;
18592;SDS011;9426;54.118;17.948;2023-02-28T10:54:45;8.33;;;3.70;;
18592;SDS011;9426;54.118;17.948;2023-02-28T11:00:20;8.20;;;3.40;;
18592;SDS011;9426;54.118;17.948;2023-02-28T11:05:55;7.20;;;3.10;;
18592;SDS011;9426;54.118;17.948;2023-02-28T11:11:20;9.47;;;3.90;;
18592;SDS011;9426;54.118;17.948;2023-02-28T11:16:45;8.10;;;3.30;;
18592;SDS011;9426;54.118;17.948;2023-02-28T11:22:10;8.33;;;4.00;;
18592;SDS011;9426;54.118;17.948;2023-02-28T11:27:43;5.97;;;3.30;;
18592;SDS011;9426;54.118;17.948;2023-02-28T11:33:23;7.30;;;3.00;;
18592;SDS011;9426;54.118;17.948;2023-02-28T11:38:53;5.93;;;2.93;;
18592;SDS011;9426;54.118;17.948;2023-02-28T11:44:21;6.03;;;3.20;;
18592;SDS011;9426;54.118;17.948;2023-02-28T11:49:58;4.67;;;2.30;;
18592;SDS011;9426;54.118;17.948;2023-02-28T11:55:35;4.37;;;2.10;;
18592;SDS011;9426;54.118;17.948;2023-02-28T12:01:05;5.97;;;2.13;;
18592;SDS011;9426;54.118;17.948;2023-02-28T12:06:45;2.87;;;1.73;;
18592;SDS011;9426;54.118;17.948;2023-02-28T12:12:18;2.67;;;1.67;;
18592;SDS011;9426;54.118;17.948;2023-02-28T12:17:56;4.40;;;2.10;;
18592;SDS011;9426;54.118;17.948;2023-02-28T12:23:37;3.53;;;1.93;;
18592;SDS011;9426;54.118;17.948;2023-02-28T12:29:14;3.27;;;1.80;;
18592;SDS011;9426;54.118;17.948;2023-02-28T12:34:44;3.97;;;2.00;;
18592;SDS011;9426;54.118;17.948;2023-02-28T12:40:11;6.70;;;1.90;;
18592;SDS011;9426;54.118;17.948;2023-02-28T12:45:41;3.10;;;1.70;;
18592;SDS011;9426;54.118;17.948;2023-02-28T12:51:09;3.83;;;2.10;;
18592;SDS011;9426;54.118;17.948;2023-02-28T12:56:38;4.43;;;2.37;;
18592;SDS011;9426;54.118;17.948;2023-02-28T13:08:17;5.33;;;2.00;;
18592;SDS011;9426;54.118;17.948;2023-02-28T13:14:00;4.47;;;1.87;;
18592;SDS011;9426;54.118;17.948;2023-02-28T13:19:27;3.57;;;2.00;;
18592;SDS011;9426;54.118;17.948;2023-02-28T13:24:53;3.47;;;2.13;;
18592;SDS011;9426;54.118;17.948;2023-02-28T13:36:26;3.87;;;1.90;;
18592;SDS011;9426;54.118;17.948;2023-02-28T13:41:53;3.03;;;2.17;;
18592;SDS011;9426;54.118;17.948;2023-02-28T13:47:20;5.63;;;2.10;;
18592;SDS011;9426;54.118;17.948;2023-02-28T13:52:48;5.87;;;2.20;;
18592;SDS011;9426;54.118;17.948;2023-02-28T13:58:41;4.70;;;2.30;;
18592;SDS011;9426;54.118;17.948;2023-02-28T14:10:20;4.57;;;2.30;;
18592;SDS011;9426;54.118;17.948;2023-02-28T14:15:58;3.57;;;2.30;;
18592;SDS011;9426;54.118;17.948;2023-02-28T14:21:27;4.17;;;2.10;;
18592;SDS011;9426;54.118;17.948;2023-02-28T14:32:47;6.47;;;2.07;;
18592;SDS011;9426;54.118;17.948;2023-02-28T14:38:19;3.70;;;1.87;;
18592;SDS011;9426;54.118;17.948;2023-02-28T14:43:51;3.30;;;1.87;;
18592;SDS011;9426;54.118;17.948;2023-02-28T14:49:24;3.83;;;1.73;;
18592;SDS011;9426;54.118;17.948;2023-02-28T14:54:51;5.87;;;1.87;;
18592;SDS011;9426;54.118;17.948;2023-02-28T15:00:20;3.87;;;2.00;;
18592;SDS011;9426;54.118;17.948;2023-02-28T15:05:51;4.27;;;2.07;;
18592;SDS011;9426;54.118;17.948;2023-02-28T15:11:16;4.83;;;2.17;;
18592;SDS011;9426;54.118;17.948;2023-02-28T15:16:44;6.27;;;2.30;;
18592;SDS011;9426;54.118;17.948;2023-02-28T15:22:12;5.23;;;2.20;;
18592;SDS011;9426;54.118;17.948;2023-02-28T15:27:41;6.53;;;3.40;;
18592;SDS011;9426;54.118;17.948;2023-02-28T15:33:19;4.57;;;2.53;;
18592;SDS011;9426;54.118;17.948;2023-02-28T15:38:45;6.23;;;2.20;;
18592;SDS011;9426;54.118;17.948;2023-02-28T15:44:15;5.27;;;2.93;;
18592;SDS011;9426;54.118;17.948;2023-02-28T15:49:52;5.90;;;3.30;;
18592;SDS011;9426;54.118;17.948;2023-02-28T15:55:19;5.20;;;2.67;;
18592;SDS011;9426;54.118;17.948;2023-02-28T16:00:44;7.03;;;2.90;;
18592;SDS011;9426;54.118;17.948;2023-02-28T16:06:39;7.00;;;2.47;;
18592;SDS011;9426;54.118;17.948;2023-02-28T16:12:05;8.43;;;3.00;;
18592;SDS011;9426;54.118;17.948;2023-02-28T16:17:35;6.80;;;2.87;;
18592;SDS011;9426;54.118;17.948;2023-02-28T16:23:08;9.30;;;4.30;;
18592;SDS011;9426;54.118;17.948;2023-02-28T16:28:57;8.50;;;3.30;;
18592;SDS011;9426;54.118;17.948;2023-02-28T16:34:21;6.93;;;2.90;;
18592;SDS011;9426;54.118;17.948;2023-02-28T16:39:47;7.70;;;2.97;;
18592;SDS011;9426;54.118;17.948;2023-02-28T16:45:19;8.07;;;3.17;;
18592;SDS011;9426;54.118;17.948;2023-02-28T16:50:46;17.43;;;8.00;;
18592;SDS011;9426;54.118;17.948;2023-02-28T16:56:14;48.50;;;23.07;;
18592;SDS011;9426;54.118;17.948;2023-02-28T17:01:39;11.50;;;4.90;;
18592;SDS011;9426;54.118;17.948;2023-02-28T17:07:04;10.97;;;5.47;;
18592;SDS011;9426;54.118;17.948;2023-02-28T17:12:33;12.17;;;3.77;;
18592;SDS011;9426;54.118;17.948;2023-02-28T17:17:57;11.07;;;4.47;;
18592;SDS011;9426;54.118;17.948;2023-02-28T17:23:22;8.90;;;3.47;;
18592;SDS011;9426;54.118;17.948;2023-02-28T17:28:48;8.67;;;3.77;;
18592;SDS011;9426;54.118;17.948;2023-02-28T17:34:12;8.73;;;3.33;;
18592;SDS011;9426;54.118;17.948;2023-02-28T17:39:39;6.33;;;3.10;;
18592;SDS011;9426;54.118;17.948;2023-02-28T17:45:05;8.50;;;3.50;;
18592;SDS011;9426;54.118;17.948;2023-02-28T17:50:30;25.30;;;12.40;;
18592;SDS011;9426;54.118;17.948;2023-02-28T17:55:54;14.90;;;6.37;;
18592;SDS011;9426;54.118;17.948;2023-02-28T18:01:20;10.73;;;3.90;;
18592;SDS011;9426;54.118;17.948;2023-02-28T18:06:47;8.93;;;3.60;;
18592;SDS011;9426;54.118;17.948;2023-02-28T18:12:12;9.20;;;4.17;;
18592;SDS011;9426;54.118;17.948;2023-02-28T18:17:38;12.07;;;5.33;;
18592;SDS011;9426;54.118;17.948;2023-02-28T18:23:02;20.90;;;8.50;;
18592;SDS011;9426;54.118;17.948;2023-02-28T18:28:25;18.10;;;7.93;;
18592;SDS011;9426;54.118;17.948;2023-02-28T18:33:51;11.27;;;5.33;;
18592;SDS011;9426;54.118;17.948;2023-02-28T18:39:15;14.10;;;6.23;;
18592;SDS011;9426;54.118;17.948;2023-02-28T18:44:39;18.67;;;7.27;;
18592;SDS011;9426;54.118;17.948;2023-02-28T18:50:05;14.57;;;7.07;;
18592;SDS011;9426;54.118;17.948;2023-02-28T18:55:29;20.40;;;7.00;;
18592;SDS011;9426;54.118;17.948;2023-02-28T19:00:54;17.70;;;6.77;;
18592;SDS011;9426;54.118;17.948;2023-02-28T19:06:20;18.40;;;7.60;;
18592;SDS011;9426;54.118;17.948;2023-02-28T19:11:43;15.17;;;7.23;;
18592;SDS011;9426;54.118;17.948;2023-02-28T19:17:07;14.40;;;5.10;;
18592;SDS011;9426;54.118;17.948;2023-02-28T19:22:33;14.03;;;6.00;;
18592;SDS011;9426;54.118;17.948;2023-02-28T19:27:59;29.40;;;9.87;;
18592;SDS011;9426;54.118;17.948;2023-02-28T19:33:23;16.10;;;7.10;;
18592;SDS011;9426;54.118;17.948;2023-02-28T19:38:49;15.63;;;5.90;;
18592;SDS011;9426;54.118;17.948;2023-02-28T19:44:13;8.53;;;4.43;;
18592;SDS011;9426;54.118;17.948;2023-02-28T19:49:37;12.20;;;4.90;;
18592;SDS011;9426;54.118;17.948;2023-02-28T19:55:02;14.37;;;4.67;;
18592;SDS011;9426;54.118;17.948;2023-02-28T20:00:27;12.53;;;4.20;;
18592;SDS011;9426;54.118;17.948;2023-02-28T20:05:57;13.23;;;5.60;;
18592;SDS011;9426;54.118;17.948;2023-02-28T20:11:24;11.57;;;5.20;;
18592;SDS011;9426;54.118;17.948;2023-02-28T20:16:48;16.63;;;5.83;;
18592;SDS011;9426;54.118;17.948;2023-02-28T20:22:12;11.07;;;4.40;;
18592;SDS011;9426;54.118;17.948;2023-02-28T20:27:36;11.10;;;4.73;;
18592;SDS011;9426;54.118;17.948;2023-02-28T20:33:00;11.10;;;4.43;;
18592;SDS011;9426;54.118;17.948;2023-02-28T20:38:24;11.00;;;4.43;;
18592;SDS011;9426;54.118;17.948;2023-02-28T20:43:53;14.70;;;5.47;;
18592;SDS011;9426;54.118;17.948;2023-02-28T20:49:18;12.20;;;4.27;;
18592;SDS011;9426;54.118;17.948;2023-02-28T20:54:43;14.07;;;4.63;;
18592;SDS011;9426;54.118;17.948;2023-02-28T21:00:09;13.13;;;5.47;;
18592;SDS011;9426;54.118;17.948;2023-02-28T21:05:36;12.90;;;5.17;;
18592;SDS011;9426;54.118;17.948;2023-02-28T21:11:00;12.83;;;5.00;;
18592;SDS011;9426;54.118;17.948;2023-02-28T21:16:25;15.40;;;5.27;;
18592;SDS011;9426;54.118;17.948;2023-02-28T21:21:50;16.50;;;6.17;;
18592;SDS011;9426;54.118;17.948;2023-02-28T21:27:16;17.87;;;5.80;;
18592;SDS011;9426;54.118;17.948;2023-02-28T21:32:42;21.80;;;6.60;;
18592;SDS011;9426;54.118;17.948;2023-02-28T21:38:05;23.37;;;7.17;;
18592;SDS011;9426;54.118;17.948;2023-02-28T21:43:29;23.53;;;8.53;;
18592;SDS011;9426;54.118;17.948;2023-02-28T21:48:54;26.20;;;9.77;;
18592;SDS011;9426;54.118;17.948;2023-02-28T21:54:19;28.23;;;9.47;;
18592;SDS011;9426;54.118;17.948;2023-02-28T21:59:42;22.03;;;8.67;;
18592;SDS011;9426;54.118;17.948;2023-02-28T22:05:08;26.57;;;9.37;;
18592;SDS011;9426;54.118;17.948;2023-02-28T22:10:32;26.77;;;9.63;;
18592;SDS011;9426;54.118;17.948;2023-02-28T22:16:00;20.27;;;7.53;;
18592;SDS011;9426;54.118;17.948;2023-02-28T22:21:25;24.37;;;8.50;;
18592;SDS011;9426;54.118;17.948;2023-02-28T22:26:49;20.63;;;8.63;;
18592;SDS011;9426;54.118;17.948;2023-02-28T22:32:13;21.73;;;7.13;;
18592;SDS011;9426;54.118;17.948;2023-02-28T22:37:38;22.30;;;7.13;;
18592;SDS011;9426;54.118;17.948;2023-02-28T22:43:02;20.73;;;7.23;;
18592;SDS011;9426;54.118;17.948;2023-02-28T22:48:27;18.90;;;6.57;;
18592;SDS011;9426;54.118;17.948;2023-02-28T22:53:53;22.33;;;7.67;;
18592;SDS011;9426;54.118;17.948;2023-02-28T22:59:18;24.40;;;7.27;;
18592;SDS011;9426;54.118;17.948;2023-02-28T23:04:42;13.73;;;6.10;;
18592;SDS011;9426;54.118;17.948;2023-02-28T23:10:08;16.53;;;6.27;;
18592;SDS011;9426;54.118;17.948;2023-02-28T23:15:37;23.97;;;7.10;;
18592;SDS011;9426;54.118;17.948;2023-02-28T23:21:01;18.00;;;6.57;;
18592;SDS011;9426;54.118;17.948;2023-02-28T23:26:26;15.60;;;6.00;;
18592;SDS011;9426;54.118;17.948;2023-02-28T23:31:50;16.60;;;5.30;;
18592;SDS011;9426;54.118;17.948;2023-02-28T23:37:14;14.80;;;4.67;;
18592;SDS011;9426;54.118;17.948;2023-02-28T23:42:40;11.93;;;4.83;;
18592;SDS011;9426;54.118;17.948;2023-02-28T23:48:05;11.57;;;4.87;;
18592;SDS011;9426;54.118;17.948;2023-02-28T23:53:29;12.70;;;4.67;;
18592;SDS011;9426;54.118;17.948;2023-02-28T23:58:55;11.13;;;4.23;;
